Time;durP1;ratioP1;P1;durP2;ratioP2;P2;SDS_P1;SDS_P2;PMS_P1;PMS_P2;Temp;Humidity;BMP_temperature;BMP_pressure;BME280_temperature;BME280_humidity;BME280_pressure;Samples;Min_cycle;Max_cycle;Signal;HPM_P1;HPM_P2
2023/12/03 00:02:22;;;;;;;2.83;2.63;;;18.30;62.60;;;;;;4966057;28;20545;-78
2023/12/03 00:04:48;;;;;;;2.50;2.40;;;18.30;62.50;;;;;;4970493;28;20066;-77
2023/12/03 00:07:13;;;;;;;2.58;2.38;;;18.20;63.00;;;;;;4969136;28;20537;-79
2023/12/03 00:09:39;;;;;;;2.67;2.58;;;18.20;62.50;;;;;;4950271;28;20066;-79
2023/12/03 00:12:07;;;;;;;2.97;2.78;;;18.20;62.40;;;;;;4967882;28;20051;-79
2023/12/03 00:14:34;;;;;;;2.92;2.80;;;18.20;62.50;;;;;;4968775;28;20454;-77
2023/12/03 00:17:00;;;;;;;2.67;2.53;;;18.20;62.60;;;;;;4971237;28;20727;-82
2023/12/03 00:19:25;;;;;;;3.03;2.70;;;18.20;62.40;;;;;;4969053;28;20054;-80
2023/12/03 00:21:51;;;;;;;2.53;2.35;;;18.10;62.30;;;;;;4968773;28;21694;-82
2023/12/03 00:24:17;;;;;;;2.95;2.78;;;18.10;62.40;;;;;;4968712;28;20130;-83
2023/12/03 00:26:42;;;;;;;3.08;2.88;;;18.10;62.40;;;;;;4969947;28;20517;-84
2023/12/03 00:29:08;;;;;;;2.45;2.35;;;18.10;62.40;;;;;;4968157;28;20054;-87
2023/12/03 00:31:34;;;;;;;2.70;2.50;;;18.10;62.40;;;;;;4970324;28;20552;-86
2023/12/03 00:34:01;;;;;;;2.78;2.58;;;18.10;62.20;;;;;;4967541;28;20042;-87
2023/12/03 00:36:26;;;;;;;2.40;2.30;;;18.10;63.20;;;;;;4967151;28;20453;-87
2023/12/03 00:38:52;;;;;;;2.78;2.58;;;18.10;62.50;;;;;;4967637;28;20587;-88
2023/12/03 00:41:17;;;;;;;2.60;2.50;;;18.00;62.40;;;;;;4968968;28;20051;-85
2023/12/03 00:43:43;;;;;;;2.40;2.30;;;18.00;62.40;;;;;;4965732;28;20051;-84
2023/12/03 00:46:08;;;;;;;3.08;2.88;;;18.00;62.40;;;;;;4966840;28;20092;-83
2023/12/03 00:48:34;;;;;;;2.72;2.63;;;18.00;62.40;;;;;;4969204;28;20209;-84
2023/12/03 00:50:59;;;;;;;2.50;2.33;;;18.00;62.30;;;;;;4966948;28;20097;-83
2023/12/03 00:53:25;;;;;;;3.05;2.75;;;18.00;62.30;;;;;;4966532;28;20035;-84
2023/12/03 00:55:52;;;;;;;2.65;2.55;;;18.00;62.30;;;;;;4968581;28;20061;-83
2023/12/03 00:58:18;;;;;;;2.40;2.30;;;18.00;63.10;;;;;;4969761;28;20494;-82
2023/12/03 01:00:43;;;;;;;2.17;2.08;;;17.90;62.20;;;;;;4966333;28;20524;-83
2023/12/03 01:03:09;;;;;;;2.25;2.13;;;17.90;62.20;;;;;;4968437;28;20547;-82
2023/12/03 01:05:34;;;;;;;2.35;2.25;;;17.90;62.30;;;;;;4967354;28;20528;-82
2023/12/03 01:08:00;;;;;;;2.40;2.30;;;17.90;62.20;;;;;;4968441;28;20516;-82
2023/12/03 01:10:25;;;;;;;2.35;2.20;;;17.90;62.20;;;;;;4969405;28;20420;-86
2023/12/03 01:12:51;;;;;;;2.70;2.60;;;17.90;62.30;;;;;;4970013;28;20047;-85
2023/12/03 01:15:16;;;;;;;2.78;2.58;;;17.90;62.30;;;;;;4969251;28;20165;-85
2023/12/03 01:17:42;;;;;;;2.47;2.33;;;17.80;62.40;;;;;;4965957;28;20047;-83
2023/12/03 01:20:08;;;;;;;2.05;1.95;;;17.80;62.20;;;;;;4969404;28;20125;-83
2023/12/03 01:22:33;;;;;;;2.45;2.25;;;17.80;62.10;;;;;;4965770;28;20079;-83
2023/12/03 01:24:59;;;;;;;2.35;2.25;;;17.80;62.10;;;;;;4967065;28;20559;-84
2023/12/03 01:27:24;;;;;;;2.47;2.38;;;17.80;62.00;;;;;;4966538;28;20514;-83
2023/12/03 01:29:50;;;;;;;2.45;2.30;;;17.80;62.20;;;;;;4967530;28;20042;-84
2023/12/03 01:32:15;;;;;;;2.72;2.58;;;17.80;62.20;;;;;;4969146;28;20042;-85
2023/12/03 01:34:41;;;;;;;2.33;2.22;;;17.80;62.20;;;;;;4967902;28;20097;-85
2023/12/03 01:37:07;;;;;;;3.17;2.50;;;17.80;62.20;;;;;;4966732;28;20054;-82
2023/12/03 01:39:32;;;;;;;2.72;2.60;;;17.70;62.20;;;;;;4967689;28;20089;-83
2023/12/03 01:41:58;;;;;;;2.25;2.15;;;17.70;62.20;;;;;;4968347;28;20045;-82
2023/12/03 01:44:23;;;;;;;2.58;2.47;;;17.70;62.00;;;;;;4965888;28;20031;-79
2023/12/03 01:46:50;;;;;;;2.58;2.38;;;17.70;62.20;;;;;;4968283;28;20031;-80
2023/12/03 01:49:16;;;;;;;2.65;2.55;;;17.70;63.10;;;;;;4966794;28;20035;-80
2023/12/03 01:51:42;;;;;;;2.50;2.40;;;17.70;62.20;;;;;;4967604;28;20041;-80
2023/12/03 01:54:07;;;;;;;2.22;2.13;;;17.70;62.10;;;;;;4964891;28;20401;-80
2023/12/03 01:56:33;;;;;;;2.45;2.25;;;17.70;62.00;;;;;;4967619;28;20047;-80
2023/12/03 01:58:59;;;;;;;2.20;2.10;;;17.70;62.10;;;;;;4953556;28;20031;-80
2023/12/03 02:01:24;;;;;;;2.40;2.30;;;17.70;62.10;;;;;;4967043;28;20043;-80
2023/12/03 02:03:50;;;;;;;2.40;2.30;;;17.70;62.20;;;;;;4963132;28;20050;-80
2023/12/03 02:06:16;;;;;;;2.30;2.20;;;17.70;62.00;;;;;;4966813;28;20041;-79
2023/12/03 02:08:41;;;;;;;1.95;1.85;;;17.60;62.00;;;;;;4964883;28;20050;-80
2023/12/03 02:11:07;;;;;;;2.30;2.10;;;17.60;62.20;;;;;;4967234;28;20049;-80
2023/12/03 02:13:34;;;;;;;2.30;2.20;;;17.60;62.10;;;;;;4964941;28;20046;-80
2023/12/03 02:16:00;;;;;;;2.13;2.03;;;17.60;62.10;;;;;;4966220;28;20043;-80
2023/12/03 02:18:26;;;;;;;2.40;2.30;;;17.60;62.20;;;;;;4965989;28;20038;-79
2023/12/03 02:20:52;;;;;;;2.25;2.15;;;17.60;61.90;;;;;;4950900;28;20464;-80
2023/12/03 02:23:17;;;;;;;2.42;2.33;;;17.60;62.10;;;;;;4963776;28;20062;-80
2023/12/03 02:25:43;;;;;;;2.42;2.33;;;17.60;62.30;;;;;;4966715;28;20070;-80
2023/12/03 02:28:09;;;;;;;1.98;1.88;;;17.60;62.10;;;;;;4965295;28;20184;-80
2023/12/03 02:30:34;;;;;;;2.13;2.03;;;17.60;62.10;;;;;;4962998;28;20082;-80
2023/12/03 02:33:00;;;;;;;2.10;2.00;;;17.60;62.00;;;;;;4966675;28;20097;-80
2023/12/03 02:35:25;;;;;;;2.60;2.42;;;17.50;62.00;;;;;;4932344;28;20046;-80
2023/12/03 02:37:51;;;;;;;2.38;2.28;;;17.50;62.30;;;;;;4966778;28;20113;-80
2023/12/03 02:40:16;;;;;;;2.30;2.20;;;17.50;62.10;;;;;;4967167;28;20460;-81
2023/12/03 02:42:42;;;;;;;2.60;2.40;;;17.50;62.10;;;;;;4966666;28;20122;-80
2023/12/03 02:45:09;;;;;;;2.15;2.05;;;17.50;62.40;;;;;;4965480;28;20047;-80
2023/12/03 02:47:35;;;;;;;2.08;1.98;;;17.50;61.90;;;;;;4964796;28;20051;-82
2023/12/03 02:50:01;;;;;;;2.08;1.98;;;17.50;61.90;;;;;;4968614;28;20457;-83
2023/12/03 02:52:26;;;;;;;2.30;2.20;;;17.50;63.00;;;;;;4966656;28;20039;-82
2023/12/03 02:54:53;;;;;;;2.25;2.15;;;17.50;62.00;;;;;;4964570;28;20031;-82
2023/12/03 02:57:18;;;;;;;2.17;2.08;;;17.50;61.90;;;;;;4964271;28;20105;-80
2023/12/03 02:59:44;;;;;;;2.10;2.00;;;17.50;62.00;;;;;;4965754;28;20039;-82
2023/12/03 03:02:09;;;;;;;2.10;2.00;;;17.50;62.00;;;;;;4964652;28;20054;-82
2023/12/03 03:04:35;;;;;;;2.17;2.08;;;17.40;61.80;;;;;;4964900;28;20584;-82
2023/12/03 03:07:00;;;;;;;2.00;1.90;;;17.40;61.90;;;;;;4963091;28;20519;-82
2023/12/03 03:09:26;;;;;;;2.10;2.00;;;17.40;62.90;;;;;;4963567;28;20114;-83
2023/12/03 03:11:57;;;;;;;2.33;2.22;;;17.40;62.00;;;;;;4967750;28;20101;-83
2023/12/03 03:14:23;;;;;;;2.20;2.10;;;17.40;61.80;;;;;;4965436;28;20042;-84
2023/12/03 03:16:49;;;;;;;2.20;2.10;;;17.40;61.90;;;;;;4966250;28;20531;-83
2023/12/03 03:19:15;;;;;;;2.33;2.22;;;17.40;61.80;;;;;;4965510;28;20055;-83
2023/12/03 03:21:40;;;;;;;2.08;1.98;;;17.40;61.90;;;;;;4963229;28;20046;-82
2023/12/03 03:24:06;;;;;;;2.38;2.28;;;17.40;61.80;;;;;;4964245;28;20101;-81
2023/12/03 03:26:32;;;;;;;2.30;2.20;;;17.30;61.80;;;;;;4951958;28;20540;-81
2023/12/03 03:28:57;;;;;;;2.10;2.00;;;17.40;61.80;;;;;;4964824;28;20074;-82
2023/12/03 03:31:23;;;;;;;2.13;2.03;;;17.40;61.70;;;;;;4963302;28;20047;-80
2023/12/03 03:33:49;;;;;;;1.90;1.80;;;17.40;61.70;;;;;;4965527;28;20050;-81
2023/12/03 03:36:15;;;;;;;2.42;2.33;;;17.30;61.70;;;;;;4966928;28;20082;-79
2023/12/03 03:38:42;;;;;;;2.33;2.22;;;17.30;61.80;;;;;;4965214;28;20505;-80
2023/12/03 03:41:08;;;;;;;2.35;2.25;;;17.30;61.70;;;;;;4962774;28;20409;-81
2023/12/03 03:43:34;;;;;;;2.17;2.08;;;17.30;61.70;;;;;;4962642;28;20058;-80
2023/12/03 03:46:00;;;;;;;2.03;1.92;;;17.30;61.70;;;;;;4965399;28;20045;-80
2023/12/03 03:48:26;;;;;;;1.95;1.85;;;17.30;61.70;;;;;;4963977;28;20050;-80
2023/12/03 03:50:51;;;;;;;2.03;1.92;;;17.30;61.70;;;;;;4966173;28;20054;-80
2023/12/03 03:53:17;;;;;;;2.30;2.20;;;17.30;62.50;;;;;;4961832;28;20497;-80
2023/12/03 03:55:42;;;;;;;2.20;2.10;;;17.30;61.60;;;;;;4933628;28;20066;-81
2023/12/03 03:58:08;;;;;;;1.98;1.88;;;17.30;61.70;;;;;;4964812;28;20137;-81
2023/12/03 04:00:34;;;;;;;2.45;2.35;;;17.30;61.70;;;;;;4965385;28;20066;-80
2023/12/03 04:02:59;;;;;;;2.30;2.20;;;17.30;61.70;;;;;;4963483;28;20035;-81
2023/12/03 04:05:25;;;;;;;2.00;1.90;;;17.30;61.70;;;;;;4964344;28;20053;-81
2023/12/03 04:07:51;;;;;;;2.47;2.38;;;17.30;61.90;;;;;;4975604;28;20540;-82
2023/12/03 04:10:16;;;;;;;2.10;2.00;;;17.20;61.70;;;;;;4966133;28;20047;-82
2023/12/03 04:12:42;;;;;;;2.13;2.03;;;17.20;61.70;;;;;;4965571;28;20049;-80
2023/12/03 04:15:08;;;;;;;2.35;2.25;;;17.20;61.80;;;;;;4965918;28;20047;-80
2023/12/03 04:17:33;;;;;;;2.13;2.03;;;17.20;61.70;;;;;;4965636;28;20481;-80
2023/12/03 04:19:59;;;;;;;2.20;2.10;;;17.20;61.70;;;;;;4964654;28;20524;-79
2023/12/03 04:22:24;;;;;;;2.22;2.13;;;17.20;61.90;;;;;;4964018;28;20071;-80
2023/12/03 04:24:50;;;;;;;2.00;1.90;;;17.20;61.70;;;;;;4965881;28;20039;-80
2023/12/03 04:27:16;;;;;;;3.50;1.90;;;17.20;61.90;;;;;;4964805;28;20047;-81
2023/12/03 04:29:42;;;;;;;1.80;1.70;;;17.20;61.80;;;;;;4949100;28;20077;-82
2023/12/03 04:32:07;;;;;;;1.88;1.77;;;17.20;61.80;;;;;;4962560;28;20066;-81
2023/12/03 04:34:33;;;;;;;2.08;1.98;;;17.20;61.60;;;;;;4969429;28;20038;-81
2023/12/03 04:36:59;;;;;;;2.13;2.03;;;17.20;61.70;;;;;;4968625;28;20390;-81
2023/12/03 04:39:24;;;;;;;1.90;1.80;;;17.20;61.80;;;;;;4969499;28;20138;-80
2023/12/03 04:41:50;;;;;;;1.80;1.70;;;17.20;61.80;;;;;;4965356;28;20043;-81
2023/12/03 04:44:16;;;;;;;2.28;2.17;;;17.20;61.70;;;;;;4970986;28;20043;-81
2023/12/03 04:46:41;;;;;;;2.13;2.03;;;17.20;61.80;;;;;;4970315;28;20396;-82
2023/12/03 04:49:07;;;;;;;2.42;1.95;;;17.20;61.90;;;;;;4965475;28;20121;-81
2023/12/03 04:51:33;;;;;;;1.88;1.77;;;17.20;61.90;;;;;;4967939;28;20055;-81
2023/12/03 04:53:59;;;;;;;1.85;1.75;;;17.10;61.70;;;;;;4966793;28;20106;-81
2023/12/03 04:56:24;;;;;;;1.83;1.73;;;17.10;61.70;;;;;;4968308;28;20413;-81
2023/12/03 04:58:50;;;;;;;1.90;1.80;;;17.10;61.70;;;;;;4968166;28;20047;-82
2023/12/03 05:01:18;;;;;;;2.00;1.90;;;17.10;61.70;;;;;;4969378;28;20046;-80
2023/12/03 05:03:47;;;;;;;2.05;1.95;;;17.10;61.70;;;;;;4965821;28;20042;-80
2023/12/03 05:06:13;;;;;;;2.00;1.90;;;17.10;61.80;;;;;;4962998;28;20062;-81
2023/12/03 05:08:38;;;;;;;1.98;1.88;;;17.10;61.80;;;;;;4967386;28;20078;-80
2023/12/03 05:11:05;;;;;;;1.90;1.80;;;17.10;62.60;;;;;;4966749;28;20571;-80
2023/12/03 05:13:31;;;;;;;1.70;1.60;;;17.10;61.80;;;;;;4966293;28;20054;-80
2023/12/03 05:15:56;;;;;;;1.90;1.80;;;17.10;61.80;;;;;;4983509;28;20343;-79
2023/12/03 05:18:22;;;;;;;1.83;1.73;;;17.10;61.80;;;;;;4968148;28;20046;-80
2023/12/03 05:20:48;;;;;;;1.90;1.80;;;17.10;61.80;;;;;;4965896;28;20043;-80
2023/12/03 05:23:14;;;;;;;1.80;1.70;;;17.10;61.90;;;;;;4966668;28;20039;-83
2023/12/03 05:25:40;;;;;;;1.92;1.83;;;17.10;61.80;;;;;;4966762;28;20062;-82
2023/12/03 05:28:05;;;;;;;1.88;1.77;;;17.10;61.90;;;;;;4968255;28;20046;-84
2023/12/03 05:30:31;;;;;;;1.83;1.73;;;17.10;62.00;;;;;;4950157;28;20043;-82
2023/12/03 05:32:57;;;;;;;2.10;2.00;;;17.10;61.90;;;;;;4968386;28;20050;-82
2023/12/03 05:35:23;;;;;;;1.90;1.80;;;17.00;62.00;;;;;;4968685;28;20038;-81
2023/12/03 05:37:49;;;;;;;1.85;1.75;;;17.10;61.90;;;;;;4969781;28;20055;-81
2023/12/03 05:40:14;;;;;;;1.65;1.55;;;17.10;61.70;;;;;;4962217;28;20051;-81
2023/12/03 05:42:40;;;;;;;1.85;1.75;;;17.10;61.90;;;;;;4965073;28;20047;-82
2023/12/03 05:45:06;;;;;;;2.10;2.00;;;17.10;61.90;;;;;;4982555;28;20046;-82
2023/12/03 05:47:33;;;;;;;2.00;1.90;;;17.00;61.80;;;;;;4965744;28;20162;-82
2023/12/03 05:50:00;;;;;;;1.83;1.73;;;17.00;61.70;;;;;;4969730;28;20554;-83
2023/12/03 05:52:25;;;;;;;1.80;1.70;;;17.00;61.70;;;;;;4966860;28;20043;-83
2023/12/03 05:54:51;;;;;;;1.83;1.73;;;17.00;61.80;;;;;;4967647;28;20050;-83
2023/12/03 05:57:16;;;;;;;1.88;1.77;;;17.00;61.90;;;;;;4966563;28;20047;-82
2023/12/03 05:59:42;;;;;;;1.58;1.48;;;17.00;61.90;;;;;;4966642;28;20050;-81
2023/12/03 06:02:07;;;;;;;1.65;1.58;;;17.00;62.10;;;;;;4967489;28;20537;-80
2023/12/03 06:04:33;;;;;;;1.55;1.45;;;17.00;62.00;;;;;;4968751;28;20523;-80
2023/12/03 06:06:58;;;;;;;1.88;1.77;;;17.00;61.90;;;;;;4967135;28;20409;-84
2023/12/03 06:09:24;;;;;;;1.80;1.70;;;17.00;63.20;;;;;;4967047;28;20051;-86
2023/12/03 06:11:50;;;;;;;1.70;1.60;;;17.00;62.00;;;;;;4968340;28;20161;-85
2023/12/03 06:14:16;;;;;;;1.70;1.60;;;17.00;61.90;;;;;;4968911;28;20274;-81
2023/12/03 06:16:41;;;;;;;1.70;1.60;;;17.00;61.80;;;;;;4967353;28;20519;-81
2023/12/03 06:19:07;;;;;;;1.70;1.60;;;17.00;62.30;;;;;;4966707;28;20046;-80
2023/12/03 06:21:32;;;;;;;1.80;1.70;;;17.00;61.90;;;;;;4962837;28;20043;-80
2023/12/03 06:23:58;;;;;;;1.65;1.55;;;17.00;61.90;;;;;;4983302;28;20035;-80
2023/12/03 06:26:23;;;;;;;1.70;1.60;;;17.00;61.80;;;;;;4966095;28;20557;-80
2023/12/03 06:28:49;;;;;;;1.38;1.35;;;17.00;62.00;;;;;;4969121;28;20141;-81
2023/12/03 06:31:14;;;;;;;1.45;1.35;;;17.00;61.70;;;;;;4966898;28;20058;-82
2023/12/03 06:33:40;;;;;;;1.50;1.40;;;16.90;62.30;;;;;;4966755;28;20408;-81
2023/12/03 06:36:06;;;;;;;1.92;1.83;;;16.90;61.90;;;;;;4964960;28;20043;-80
2023/12/03 06:38:32;;;;;;;1.33;1.30;;;16.90;61.80;;;;;;4965576;28;20078;-81
2023/12/03 06:40:57;;;;;;;1.80;1.70;;;16.90;62.20;;;;;;4967917;28;20050;-81
2023/12/03 06:43:23;;;;;;;1.48;1.40;;;17.00;62.00;;;;;;4968043;28;20047;-80
2023/12/03 06:45:49;;;;;;;1.77;1.67;;;17.00;62.00;;;;;;4964999;28;20409;-81
2023/12/03 06:48:14;;;;;;;1.60;1.50;;;16.90;62.00;;;;;;4971084;28;20074;-81
2023/12/03 06:50:40;;;;;;;1.40;1.40;;;16.90;62.00;;;;;;4967523;28;20467;-81
2023/12/03 06:53:05;;;;;;;1.80;1.70;;;16.90;62.00;;;;;;4967388;28;20070;-82
2023/12/03 06:55:31;;;;;;;1.80;1.70;;;16.90;61.90;;;;;;4964663;28;20034;-83
2023/12/03 06:57:56;;;;;;;1.73;1.63;;;16.90;62.00;;;;;;4966399;28;20055;-83
2023/12/03 07:00:25;;;;;;;1.42;1.40;;;16.90;61.90;;;;;;4980316;28;20425;-83
2023/12/03 07:02:50;;;;;;;1.65;1.65;;;16.90;61.90;;;;;;4963058;28;20090;-83
2023/12/03 07:05:17;;;;;;;1.73;1.63;;;16.90;62.10;;;;;;4958999;28;20540;-84
2023/12/03 07:07:43;;;;;;;1.90;1.80;;;16.90;61.90;;;;;;4966774;28;20054;-82
2023/12/03 07:10:09;;;;;;;1.75;1.65;;;16.90;62.00;;;;;;4966355;28;20376;-83
2023/12/03 07:12:34;;;;;;;1.55;1.52;;;16.90;61.90;;;;;;4966590;28;20129;-81
2023/12/03 07:15:00;;;;;;;1.70;1.60;;;16.90;62.10;;;;;;4967568;28;20133;-79
2023/12/03 07:17:25;;;;;;;1.50;1.40;;;16.90;62.00;;;;;;4964092;28;20102;-81
2023/12/03 07:19:51;;;;;;;1.55;1.45;;;16.90;62.00;;;;;;4966975;28;20093;-80
2023/12/03 07:22:16;;;;;;;1.20;1.10;;;16.90;62.10;;;;;;4965059;28;20054;-82
2023/12/03 07:24:43;;;;;;;1.63;1.52;;;16.90;62.10;;;;;;4967020;28;20046;-82
2023/12/03 07:27:08;;;;;;;1.40;1.38;;;16.90;62.10;;;;;;4967235;28;20078;-81
2023/12/03 07:29:34;;;;;;;1.80;1.70;;;16.90;61.90;;;;;;4965740;28;20065;-82
2023/12/03 07:32:00;;;;;;;1.65;1.55;;;16.90;61.90;;;;;;4966733;28;20051;-82
2023/12/03 07:34:28;;;;;;;1.70;1.60;;;16.80;61.80;;;;;;4966444;28;20085;-82
2023/12/03 07:36:54;;;;;;;1.23;1.23;;;16.90;62.30;;;;;;4966363;28;20087;-80
2023/12/03 07:39:19;;;;;;;1.55;1.45;;;16.90;62.00;;;;;;4966633;28;20116;-85
2023/12/03 07:41:51;;;;;;;1.70;1.27;;;16.90;62.70;;;;;;4945890;28;20412;-88
2023/12/03 07:44:16;;;;;;;1.63;1.40;;;16.90;62.60;;;;;;4970742;28;20038;-83
2023/12/03 07:46:42;;;;;;;1.60;1.50;;;16.90;62.50;;;;;;4946014;28;20049;-91
2023/12/03 07:49:08;;;;;;;2.28;1.70;;;16.90;62.50;;;;;;4964994;28;20047;-87
2023/12/03 07:51:33;;;;;;;2.85;1.58;;;16.90;62.50;;;;;;4966619;28;20445;-85
2023/12/03 07:53:59;;;;;;;1.80;1.70;;;16.90;62.90;;;;;;4965853;28;20405;-83
2023/12/03 07:56:37;;;;;;;1.65;1.55;;;17.00;62.70;;;;;;4967396;28;20055;-79
2023/12/03 07:59:03;;;;;;;1.50;1.40;;;17.00;63.10;;;;;;4968357;28;20051;-79
2023/12/03 08:01:28;;;;;;;1.73;1.20;;;17.10;63.50;;;;;;4967351;28;20106;-80
2023/12/03 08:03:54;;;;;;;2.50;1.60;;;17.00;63.90;;;;;;4963095;28;20047;-79
2023/12/03 08:06:19;;;;;;;2.78;1.42;;;17.10;64.00;;;;;;4967747;28;20458;-79
2023/12/03 08:08:45;;;;;;;3.42;1.80;;;17.00;64.70;;;;;;4968038;28;20058;-79
2023/12/03 08:11:10;;;;;;;2.50;1.60;;;17.10;65.90;;;;;;4972467;28;20049;-80
2023/12/03 08:13:36;;;;;;;4.70;1.60;;;17.10;66.20;;;;;;4967983;28;20130;-81
2023/12/03 08:16:03;;;;;;;1.80;1.60;;;17.10;66.20;;;;;;4969523;28;20063;-81
2023/12/03 08:18:32;;;;;;;1.33;1.23;;;17.10;66.40;;;;;;4971654;28;20031;-80
2023/12/03 08:20:58;;;;;;;2.55;1.35;;;17.10;66.90;;;;;;4968928;28;20054;-80
2023/12/03 08:23:24;;;;;;;1.67;1.30;;;17.10;66.20;;;;;;4967987;28;20093;-84
2023/12/03 08:25:50;;;;;;;4.22;1.60;;;17.20;67.30;;;;;;4967851;28;20054;-82
2023/12/03 08:28:16;;;;;;;1.98;1.30;;;17.20;65.90;;;;;;4969106;28;20046;-81
2023/12/03 08:30:42;;;;;;;4.95;1.50;;;17.10;65.80;;;;;;4968575;28;20065;-83
2023/12/03 08:33:07;;;;;;;1.70;1.45;;;17.10;65.60;;;;;;4966659;28;20050;-81
2023/12/03 08:35:33;;;;;;;2.40;1.60;;;17.10;66.00;;;;;;4965356;28;20118;-84
2023/12/03 08:37:59;;;;;;;2.08;1.25;;;17.20;66.70;;;;;;4963775;28;20097;-83
2023/12/03 08:40:24;;;;;;;1.33;1.33;;;17.20;66.10;;;;;;4967190;28;20109;-84
2023/12/03 08:42:50;;;;;;;1.60;1.50;;;17.10;65.70;;;;;;4969064;28;20535;-84
2023/12/03 08:45:15;;;;;;;1.58;1.48;;;17.10;66.60;;;;;;4969672;28;20404;-84
2023/12/03 08:47:41;;;;;;;1.67;1.58;;;17.10;66.10;;;;;;4968374;28;20054;-84
2023/12/03 08:50:07;;;;;;;1.98;1.88;;;17.10;66.00;;;;;;4969352;28;20049;-84
2023/12/03 08:52:32;;;;;;;2.28;2.08;;;17.10;66.20;;;;;;4967846;28;20252;-83
2023/12/03 08:54:59;;;;;;;1.50;1.38;;;17.10;66.40;;;;;;4970208;28;20393;-83
2023/12/03 08:57:25;;;;;;;3.53;2.00;;;17.10;66.20;;;;;;4963343;28;20071;-83
2023/12/03 08:59:53;;;;;;;2.13;1.92;;;17.10;66.30;;;;;;4968775;28;20131;-83
2023/12/03 09:02:19;;;;;;;4.47;2.22;;;17.10;66.20;;;;;;4962925;28;20054;-84
2023/12/03 09:04:44;;;;;;;2.35;1.73;;;17.10;66.30;;;;;;4966682;28;20078;-83
2023/12/03 09:07:10;;;;;;;4.45;1.60;;;17.10;66.30;;;;;;4969474;28;20074;-83
2023/12/03 09:09:35;;;;;;;1.95;1.85;;;17.10;66.20;;;;;;4967222;28;20481;-83
2023/12/03 09:12:01;;;;;;;1.95;1.85;;;17.10;66.30;;;;;;4966787;28;20093;-83
2023/12/03 09:14:27;;;;;;;3.40;1.50;;;17.10;66.20;;;;;;4967605;28;20493;-84
2023/12/03 09:16:53;;;;;;;1.92;1.83;;;17.10;66.30;;;;;;4968207;28;20505;-83
2023/12/03 09:19:19;;;;;;;2.00;1.90;;;17.10;66.10;;;;;;4966036;28;20046;-83
2023/12/03 09:21:44;;;;;;;3.17;1.50;;;17.10;66.30;;;;;;4966769;28;20453;-83
2023/12/03 09:24:10;;;;;;;2.72;1.85;;;17.10;66.10;;;;;;4969537;28;20532;-83
2023/12/03 09:26:36;;;;;;;2.38;1.70;;;17.10;66.10;;;;;;4968399;28;20867;-82
2023/12/03 09:29:01;;;;;;;2.03;1.38;;;17.10;65.90;;;;;;4968285;28;20050;-82
2023/12/03 09:31:27;;;;;;;2.63;1.40;;;17.10;65.80;;;;;;4968736;28;20035;-83
2023/12/03 09:33:52;;;;;;;1.45;1.35;;;17.10;65.80;;;;;;4969739;28;20047;-84
2023/12/03 09:36:18;;;;;;;1.67;1.58;;;17.10;65.70;;;;;;4969740;28;20050;-83
2023/12/03 09:38:43;;;;;;;2.90;1.83;;;17.20;65.60;;;;;;4946788;28;20062;-83
2023/12/03 09:41:11;;;;;;;1.75;1.65;;;17.20;65.50;;;;;;4970015;28;20042;-84
2023/12/03 09:43:38;;;;;;;3.05;1.73;;;17.10;65.40;;;;;;4966840;28;20031;-83
2023/12/03 09:46:05;;;;;;;2.03;1.80;;;17.20;65.30;;;;;;4966009;28;20046;-84
2023/12/03 09:48:32;;;;;;;2.10;1.55;;;17.20;65.30;;;;;;4966455;28;20095;-83
2023/12/03 09:50:57;;;;;;;1.77;1.67;;;17.20;65.00;;;;;;4966930;28;20520;-83
2023/12/03 09:53:23;;;;;;;1.40;1.30;;;17.20;65.00;;;;;;4968739;28;20050;-84
2023/12/03 09:55:48;;;;;;;1.90;1.60;;;17.20;64.80;;;;;;4967304;28;20058;-84
2023/12/03 09:58:15;;;;;;;1.38;1.30;;;17.20;64.90;;;;;;4963935;28;20094;-83
2023/12/03 10:00:41;;;;;;;1.50;1.40;;;17.20;65.10;;;;;;4966955;28;20077;-83
2023/12/03 10:03:08;;;;;;;2.83;2.40;;;17.20;65.40;;;;;;4967608;28;20517;-84
2023/12/03 10:05:33;;;;;;;2.50;2.40;;;17.30;64.70;;;;;;4982373;28;20051;-83
2023/12/03 10:07:59;;;;;;;3.95;2.47;;;17.40;64.20;;;;;;4963959;28;20047;-83
2023/12/03 10:10:28;;;;;;;14.75;13.30;;;17.50;64.50;;;;;;4961427;28;20102;-79
2023/12/03 10:12:54;;;;;;;12.40;11.00;;;17.60;64.40;;;;;;4961562;28;20134;-80
2023/12/03 10:15:20;;;;;;;21.88;12.13;;;17.60;64.40;;;;;;4958426;28;20604;-81
2023/12/03 10:17:46;;;;;;;18.98;12.05;;;17.60;64.70;;;;;;4946296;28;20047;-79
2023/12/03 10:20:22;;;;;;;18.05;13.80;;;17.60;65.10;;;;;;4946621;28;20125;-87
2023/12/03 10:22:48;;;;;;;20.45;12.73;;;17.60;65.30;;;;;;4933744;28;20057;-88
2023/12/03 10:25:33;;;;;;;16.90;11.88;;;17.60;65.10;;;;;;4951151;28;21564;-86
2023/12/03 10:28:03;;;;;;;15.88;11.50;;;17.80;64.80;;;;;;4951590;28;20047;-84
2023/12/03 10:30:29;;;;;;;10.70;9.15;;;17.80;64.80;;;;;;4947153;28;20043;-84
2023/12/03 10:32:55;;;;;;;9.85;8.60;;;17.90;65.00;;;;;;4951023;28;20097;-83
2023/12/03 10:35:24;;;;;;;9.00;7.93;;;18.10;65.00;;;;;;4965063;28;20047;-85
2023/12/03 10:37:50;;;;;;;10.48;7.97;;;18.10;65.00;;;;;;4967423;28;20538;-89
2023/12/03 10:40:16;;;;;;;7.82;7.03;;;18.30;64.80;;;;;;4965454;28;20070;-89
2023/12/03 10:42:42;;;;;;;7.60;6.50;;;18.30;64.80;;;;;;4965560;28;20065;-86
2023/12/03 10:45:09;;;;;;;6.80;6.15;;;18.30;64.90;;;;;;4947827;28;20650;-87
2023/12/03 10:47:35;;;;;;;8.65;5.88;;;18.40;64.70;;;;;;4964851;28;20046;-85
2023/12/03 10:50:02;;;;;;;9.07;5.60;;;18.50;64.90;;;;;;4966415;28;20059;-84
2023/12/03 10:52:29;;;;;;;5.72;5.22;;;18.70;64.40;;;;;;4963776;28;20105;-87
2023/12/03 10:54:54;;;;;;;5.28;4.88;;;18.70;64.20;;;;;;4958282;28;20047;-85
2023/12/03 10:57:20;;;;;;;4.20;4.00;;;18.80;64.00;;;;;;4961231;28;20126;-84
2023/12/03 10:59:46;;;;;;;4.60;4.30;;;18.80;63.80;;;;;;4965167;28;20547;-88
2023/12/03 11:02:11;;;;;;;5.13;4.65;;;18.80;63.50;;;;;;4966406;28;20101;-85
2023/12/03 11:04:47;;;;;;;5.65;4.68;;;18.90;64.10;;;;;;4965132;28;20136;-84
2023/12/03 11:07:14;;;;;;;5.18;4.78;;;19.00;63.20;;;;;;4947613;28;20042;-84
2023/12/03 11:09:40;;;;;;;4.88;4.47;;;19.00;63.00;;;;;;4964690;28;20038;-83
2023/12/03 11:12:06;;;;;;;5.13;4.72;;;19.00;62.80;;;;;;4965426;28;20041;-82
2023/12/03 11:14:32;;;;;;;4.63;4.32;;;19.00;62.70;;;;;;4961449;28;20047;-85
2023/12/03 11:17:12;;;;;;;4.38;4.07;;;19.10;62.50;;;;;;4950863;28;20057;-88
2023/12/03 11:19:38;;;;;;;4.40;4.00;;;19.10;62.50;;;;;;4957225;28;20058;-86
2023/12/03 11:22:32;;;;;;;4.05;3.70;;;19.10;62.40;;;;;;4962319;28;20066;-86
2023/12/03 11:25:08;;;;;;;4.20;3.47;;;19.20;62.30;;;;;;4961963;28;20043;-88
2023/12/03 11:27:33;;;;;;;4.35;3.95;;;19.20;62.30;;;;;;4961004;28;20147;-86
2023/12/03 11:30:04;;;;;;;4.60;4.15;;;19.20;62.20;;;;;;4962286;28;20565;-85
2023/12/03 11:32:29;;;;;;;4.22;4.00;;;19.20;62.00;;;;;;4960497;28;20166;-85
2023/12/03 11:35:15;;;;;;;4.18;3.80;;;19.20;62.00;;;;;;4959457;28;20080;-85
2023/12/03 11:37:43;;;;;;;4.28;3.97;;;19.30;61.80;;;;;;4960902;28;20521;-86
2023/12/03 11:40:13;;;;;;;4.43;4.13;;;19.30;61.80;;;;;;4964293;28;20066;-86
2023/12/03 11:42:56;;;;;;;3.95;3.65;;;19.40;61.90;;;;;;4967526;28;20055;-84
2023/12/03 11:45:26;;;;;;;5.00;4.57;;;19.50;61.00;;;;;;4968535;28;20105;-85
2023/12/03 11:48:11;;;;;;;4.68;4.30;;;19.60;60.80;;;;;;4948256;28;20050;-87
2023/12/03 11:50:40;;;;;;;;;;;19.60;60.90;;;;;;4964241;28;20035;-86
2023/12/03 11:53:06;;;;;;;3.83;3.63;;;19.60;60.90;;;;;;4968654;28;19941;-85
2023/12/03 11:55:34;;;;;;;3.65;3.40;;;19.80;60.80;;;;;;4966756;28;20053;-87
2023/12/03 11:58:01;;;;;;;3.55;3.22;;;19.70;60.90;;;;;;4966755;28;20069;-85
2023/12/03 12:00:26;;;;;;;3.75;3.53;;;19.70;61.10;;;;;;4965372;28;20517;-87
2023/12/03 12:02:52;;;;;;;3.63;3.33;;;19.90;61.00;;;;;;4969794;28;20059;-85
2023/12/03 12:05:18;;;;;;;3.78;3.58;;;19.90;60.80;;;;;;4968384;28;20058;-86
2023/12/03 12:08:04;;;;;;;3.92;3.72;;;20.00;60.90;;;;;;4969615;28;20039;-84
2023/12/03 12:10:33;;;;;;;4.50;4.20;;;20.00;60.80;;;;;;4970991;28;20212;-86
2023/12/03 12:13:02;;;;;;;4.68;4.38;;;20.10;60.90;;;;;;4968105;28;20432;-86
2023/12/03 12:15:28;;;;;;;4.65;4.25;;;20.20;61.70;;;;;;4966216;28;20050;-84
2023/12/03 12:17:54;;;;;;;4.80;4.30;;;20.20;61.00;;;;;;4969280;28;20094;-86
2023/12/03 12:20:23;;;;;;;5.32;4.82;;;20.30;61.90;;;;;;4968086;28;20054;-85
2023/12/03 12:22:51;;;;;;;4.47;4.07;;;20.40;61.40;;;;;;4971189;28;20054;-89
2023/12/03 12:25:16;;;;;;;4.60;4.20;;;20.50;61.40;;;;;;4966769;28;20050;-90
2023/12/03 12:27:42;;;;;;;4.50;4.10;;;20.50;62.10;;;;;;4966610;28;20182;-90
2023/12/03 12:30:08;;;;;;;4.20;4.00;;;20.50;61.90;;;;;;4969820;28;20047;-88
2023/12/03 12:32:34;;;;;;;4.47;4.07;;;20.50;62.10;;;;;;4952860;28;20039;-88
2023/12/03 12:35:02;;;;;;;4.97;4.57;;;20.60;62.30;;;;;;4955455;28;20054;-87
2023/12/03 12:37:28;;;;;;;5.18;4.68;;;20.50;62.00;;;;;;4953937;28;20108;-88
2023/12/03 12:40:04;;;;;;;4.28;3.97;;;20.50;62.10;;;;;;4967280;28;20126;-88
2023/12/03 12:42:29;;;;;;;4.03;3.83;;;20.40;62.00;;;;;;4952042;28;20070;-89